createdAt,value
2024-02-28T00:03:24.866Z,99.90
2024-02-28T00:05:52.018Z,99.90
2024-02-28T00:08:21.413Z,99.90
2024-02-28T00:10:48.381Z,99.90
2024-02-28T00:13:16.902Z,99.90
2024-02-28T00:15:45.952Z,99.90
2024-02-28T00:18:15.430Z,99.90
2024-02-28T00:20:55.389Z,99.90
2024-02-28T00:23:23.105Z,99.90
2024-02-28T00:25:49.937Z,99.90
2024-02-28T00:28:16.680Z,99.90
2024-02-28T00:30:46.215Z,99.90
2024-02-28T00:33:13.280Z,99.90
2024-02-28T00:35:42.997Z,99.90
2024-02-28T00:40:37.280Z,99.90
2024-02-28T00:43:04.342Z,99.90
2024-02-28T00:45:31.104Z,99.90
2024-02-28T00:47:57.953Z,99.90
2024-02-28T00:50:24.912Z,99.90
2024-02-28T00:52:51.874Z,99.90
2024-02-28T00:55:19.850Z,99.90
2024-02-28T00:57:49.197Z,99.90
2024-02-28T01:00:16.532Z,99.90
2024-02-28T01:02:45.880Z,99.90
2024-02-28T01:05:12.920Z,99.90
2024-02-28T01:07:39.921Z,99.90
2024-02-28T01:10:08.134Z,99.90
2024-02-28T01:12:35.725Z,99.90
2024-02-28T01:15:02.525Z,99.90
2024-02-28T01:17:29.328Z,99.90
2024-02-28T01:19:56.315Z,99.90
2024-02-28T01:22:23.144Z,99.90
2024-02-28T01:24:50.116Z,99.90
2024-02-28T01:27:18.249Z,99.90
2024-02-28T01:29:45.145Z,99.90
2024-02-28T01:32:15.118Z,99.90
2024-02-28T01:34:44.073Z,99.90
2024-02-28T01:37:11.042Z,99.90
2024-02-28T01:42:05.316Z,99.90
2024-02-28T01:44:32.085Z,99.90
2024-02-28T01:46:59.507Z,99.90
2024-02-28T01:49:26.671Z,99.90
2024-02-28T01:51:55.576Z,99.90
2024-02-28T01:54:22.782Z,99.90
2024-02-28T01:56:50.228Z,99.90
2024-02-28T01:59:18.904Z,99.90
2024-02-28T02:01:47.163Z,99.90
2024-02-28T02:04:13.954Z,99.90
2024-02-28T02:06:44.969Z,99.90
2024-02-28T02:09:12.433Z,99.90
2024-02-28T02:11:40.711Z,99.90
2024-02-28T02:14:07.685Z,99.90
2024-02-28T02:16:34.377Z,99.90
2024-02-28T02:19:01.277Z,99.90
2024-02-28T02:21:32.107Z,99.90
2024-02-28T02:23:58.822Z,99.90
2024-02-28T02:26:25.830Z,99.90
2024-02-28T02:28:55.090Z,99.90
2024-02-28T02:31:24.072Z,99.90
2024-02-28T02:33:53.404Z,99.90
2024-02-28T02:36:20.365Z,99.90
2024-02-28T02:38:47.163Z,99.90
2024-02-28T02:41:14.096Z,99.90
2024-02-28T02:43:43.615Z,99.90
2024-02-28T02:46:10.531Z,99.90
2024-02-28T02:48:38.181Z,99.90
2024-02-28T02:51:05.088Z,99.90
2024-02-28T02:53:31.848Z,99.90
2024-02-28T02:55:58.719Z,99.90
2024-02-28T02:58:25.536Z,99.90
2024-02-28T03:00:52.331Z,99.90
2024-02-28T03:03:19.149Z,99.90
2024-02-28T03:05:45.913Z,99.90
2024-02-28T03:08:12.661Z,99.90
2024-02-28T03:10:44.224Z,99.90
2024-02-28T03:13:11.097Z,99.90
2024-02-28T03:15:40.520Z,99.90
2024-02-28T03:18:07.412Z,99.90
2024-02-28T03:20:34.221Z,99.90
2024-02-28T03:25:29.277Z,99.90
2024-02-28T03:30:25.889Z,99.90
2024-02-28T03:32:52.691Z,99.90
2024-02-28T03:35:19.383Z,99.90
2024-02-28T03:37:48.278Z,99.90
2024-02-28T03:40:16.151Z,99.90
2024-02-28T03:42:45.340Z,99.90
2024-02-28T03:45:14.475Z,99.90
2024-02-28T03:47:41.229Z,99.90
2024-02-28T03:50:08.629Z,99.90
2024-02-28T03:52:35.529Z,99.90
2024-02-28T03:55:06.879Z,99.90
2024-02-28T03:57:35.846Z,99.90
2024-02-28T04:00:03.787Z,99.90
2024-02-28T04:02:30.530Z,99.90
2024-02-28T04:04:59.385Z,99.90
2024-02-28T04:07:28.235Z,99.90
2024-02-28T04:09:55.046Z,99.90
2024-02-28T04:12:21.828Z,99.90
2024-02-28T04:14:48.639Z,99.90
2024-02-28T04:19:45.035Z,99.90
2024-02-28T04:22:11.754Z,99.90
2024-02-28T04:24:38.489Z,99.90
2024-02-28T04:27:06.826Z,99.90
2024-02-28T04:29:36.088Z,99.90
2024-02-28T04:32:05.063Z,99.90
2024-02-28T04:34:31.788Z,99.90
2024-02-28T04:36:58.517Z,99.90
2024-02-28T04:39:25.342Z,99.90
2024-02-28T04:41:52.136Z,99.90
2024-02-28T04:44:18.839Z,99.90
2024-02-28T04:46:49.960Z,99.90
2024-02-28T04:49:16.820Z,99.90
2024-02-28T04:51:43.548Z,99.90
2024-02-28T04:54:10.254Z,99.90
2024-02-28T04:56:43.686Z,99.90
2024-02-28T04:59:12.773Z,99.90
2024-02-28T05:04:08.058Z,99.90
2024-02-28T05:06:37.635Z,99.90
2024-02-28T05:09:05.973Z,99.90
2024-02-28T05:11:35.483Z,99.90
2024-02-28T05:14:02.401Z,99.90
2024-02-28T05:16:31.591Z,99.90
2024-02-28T05:18:58.461Z,99.90
2024-02-28T05:21:29.915Z,99.90
2024-02-28T05:23:56.811Z,99.90
2024-02-28T05:26:23.602Z,99.90
2024-02-28T05:28:52.501Z,99.90
2024-02-28T05:31:28.307Z,99.90
2024-02-28T05:33:59.543Z,99.90
2024-02-28T05:36:31.034Z,99.90
2024-02-28T05:39:02.192Z,99.90
2024-02-28T05:41:31.327Z,99.90
2024-02-28T05:44:00.247Z,99.90
2024-02-28T05:46:26.970Z,99.90
2024-02-28T05:48:56.168Z,99.90
2024-02-28T05:51:25.179Z,99.90
2024-02-28T05:53:54.418Z,99.90
2024-02-28T05:56:22.417Z,99.90
2024-02-28T05:58:49.417Z,99.90
2024-02-28T06:01:18.606Z,99.90
2024-02-28T06:03:49.551Z,99.90
2024-02-28T06:06:19.264Z,99.90
2024-02-28T06:08:46.283Z,99.90
2024-02-28T06:11:13.056Z,99.90
2024-02-28T06:13:44.694Z,99.90
2024-02-28T06:16:20.185Z,99.90
2024-02-28T06:18:49.503Z,99.90
2024-02-28T06:21:22.766Z,99.90
2024-02-28T06:23:49.526Z,99.90
2024-02-28T06:26:19.139Z,99.90
2024-02-28T06:28:48.832Z,99.90
2024-02-28T06:31:21.666Z,99.90
2024-02-28T06:33:48.423Z,99.90
2024-02-28T06:36:15.646Z,99.90
2024-02-28T06:38:42.972Z,99.90
2024-02-28T06:41:14.440Z,99.90
2024-02-28T06:43:41.186Z,99.90
2024-02-28T06:46:10.648Z,99.90
2024-02-28T06:48:41.951Z,99.90
2024-02-28T06:51:08.736Z,99.90
2024-02-28T06:56:05.311Z,99.90
2024-02-28T07:01:01.438Z,99.90
2024-02-28T07:03:29.345Z,99.90
2024-02-28T07:05:56.230Z,99.90
2024-02-28T07:08:23.041Z,99.90
2024-02-28T07:10:55.148Z,99.90
2024-02-28T07:13:24.847Z,99.90
2024-02-28T07:15:55.710Z,99.90
2024-02-28T07:18:22.640Z,99.90
2024-02-28T07:20:49.364Z,99.90
2024-02-28T07:23:16.100Z,99.90
2024-02-28T07:25:42.934Z,99.90
2024-02-28T07:28:09.776Z,99.90
2024-02-28T07:30:36.913Z,99.90
2024-02-28T07:33:06.603Z,99.90
2024-02-28T07:38:00.488Z,99.90
2024-02-28T07:40:28.814Z,99.90
2024-02-28T07:42:55.559Z,99.90
2024-02-28T07:47:49.538Z,99.90
2024-02-28T07:50:17.381Z,99.90
2024-02-28T07:52:46.299Z,99.90
2024-02-28T07:55:13.113Z,99.90
2024-02-28T07:57:42.085Z,99.90
2024-02-28T08:00:09.213Z,99.90
2024-02-28T08:02:40.257Z,99.90
2024-02-28T08:05:09.694Z,99.90
2024-02-28T08:07:36.428Z,99.90
2024-02-28T08:10:07.041Z,99.90
2024-02-28T08:12:33.978Z,99.90
2024-02-28T08:15:00.743Z,99.90
2024-02-28T08:17:27.526Z,99.90
2024-02-28T08:19:56.728Z,99.90
2024-02-28T08:22:26.622Z,99.90
2024-02-28T08:24:53.682Z,99.90
2024-02-28T08:27:22.004Z,99.90
2024-02-28T08:29:48.823Z,99.90
2024-02-28T08:32:15.565Z,99.90
2024-02-28T08:34:47.219Z,99.90
2024-02-28T08:37:17.023Z,99.90
2024-02-28T08:42:13.493Z,99.90
2024-02-28T08:44:42.950Z,99.90
2024-02-28T08:49:40.631Z,99.90
2024-02-28T08:52:07.561Z,99.90
2024-02-28T08:54:36.777Z,99.90
2024-02-28T08:57:08.620Z,99.90
2024-02-28T08:59:35.351Z,99.90
2024-02-28T09:04:29.874Z,99.90
2024-02-28T09:09:24.447Z,99.90
2024-02-28T09:11:54.644Z,99.90
2024-02-28T09:14:21.438Z,99.90
2024-02-28T09:16:48.936Z,99.90
2024-02-28T09:19:15.687Z,99.90
2024-02-28T09:21:44.703Z,99.90
2024-02-28T09:24:13.942Z,99.90
2024-02-28T09:29:08.387Z,99.90
2024-02-28T09:31:35.169Z,99.90
2024-02-28T09:34:08.571Z,99.90
2024-02-28T09:36:42.896Z,99.90
2024-02-28T09:39:12.332Z,99.90
2024-02-28T09:41:42.317Z,99.90
2024-02-28T09:46:36.696Z,99.90
2024-02-28T09:49:06.864Z,99.90
2024-02-28T09:51:39.584Z,99.90
2024-02-28T09:54:09.856Z,99.90
2024-02-28T09:56:39.124Z,99.90
2024-02-28T09:59:09.319Z,99.90
2024-02-28T10:01:43.184Z,99.90
2024-02-28T10:04:14.856Z,99.90
2024-02-28T10:06:42.363Z,99.90
2024-02-28T10:09:09.167Z,99.90
2024-02-28T10:16:30.824Z,99.90
2024-02-28T10:19:00.109Z,99.90
2024-02-28T10:21:33.979Z,99.90
2024-02-28T10:24:04.298Z,99.90
2024-02-28T10:26:36.891Z,99.90
2024-02-28T10:29:11.368Z,99.90
2024-02-28T10:34:10.729Z,99.90
2024-02-28T10:36:41.756Z,99.90
2024-02-28T10:39:10.996Z,99.90
2024-02-28T10:41:39.349Z,99.90
2024-02-28T10:44:06.173Z,99.90
2024-02-28T10:46:36.385Z,99.90
2024-02-28T10:49:07.442Z,99.90
2024-02-28T10:51:38.303Z,99.90
2024-02-28T10:54:13.396Z,99.90
2024-02-28T10:56:41.982Z,99.90
2024-02-28T10:59:11.750Z,99.90
2024-02-28T11:01:43.429Z,99.90
2024-02-28T11:04:13.836Z,99.90
2024-02-28T11:06:56.697Z,99.90
2024-02-28T11:11:52.751Z,99.90
2024-02-28T11:14:32.114Z,99.90
2024-02-28T11:17:07.084Z,99.90
2024-02-28T11:19:37.132Z,99.90
2024-02-28T11:22:06.986Z,99.90
2024-02-28T11:24:40.685Z,99.90
2024-02-28T11:27:07.912Z,99.90
2024-02-28T11:29:34.906Z,99.90
2024-02-28T11:32:01.657Z,99.90
2024-02-28T11:34:29.297Z,99.90
2024-02-28T11:36:56.972Z,99.90
2024-02-28T11:39:26.365Z,99.90
2024-02-28T11:41:56.487Z,99.90
2024-02-28T11:44:23.257Z,99.90
2024-02-28T11:46:54.550Z,99.90
2024-02-28T11:49:23.485Z,99.90
2024-02-28T11:54:17.620Z,99.90
2024-02-28T11:56:44.546Z,99.90
2024-02-28T11:59:15.123Z,99.90
2024-02-28T12:01:45.118Z,99.90
2024-02-28T12:04:14.405Z,99.90
2024-02-28T12:06:41.994Z,99.90
2024-02-28T12:09:10.822Z,99.90
2024-02-28T12:11:38.675Z,99.90
2024-02-28T12:14:09.980Z,99.90
2024-02-28T12:16:43.465Z,99.90
2024-02-28T12:19:11.624Z,99.90
2024-02-28T12:21:41.772Z,99.90
2024-02-28T12:24:12.229Z,99.90
2024-02-28T12:26:40.109Z,99.90
2024-02-28T12:29:07.587Z,99.90
2024-02-28T12:31:36.810Z,99.90
2024-02-28T12:34:05.140Z,99.90
2024-02-28T12:36:33.694Z,99.90
2024-02-28T12:39:00.769Z,99.90
2024-02-28T12:41:28.310Z,99.90
2024-02-28T12:43:57.865Z,99.90
2024-02-28T12:46:24.569Z,99.90
2024-02-28T12:48:51.328Z,99.90
2024-02-28T12:51:38.871Z,99.90
2024-02-28T12:54:06.158Z,99.90
2024-02-28T12:56:33.005Z,99.90
2024-02-28T12:59:00.216Z,99.90
2024-02-28T13:01:27.934Z,99.90
2024-02-28T13:06:23.048Z,99.90
2024-02-28T13:11:21.629Z,99.90
2024-02-28T13:13:52.687Z,99.90
2024-02-28T13:16:24.657Z,99.90
2024-02-28T13:18:51.493Z,99.90
2024-02-28T13:21:18.436Z,99.90
2024-02-28T13:23:47.410Z,99.90
2024-02-28T13:26:19.866Z,99.90
2024-02-28T13:31:22.525Z,99.90
2024-02-28T13:41:14.224Z,99.90
2024-02-28T13:43:43.112Z,99.90
2024-02-28T13:46:12.172Z,99.90
2024-02-28T13:51:06.350Z,99.90
2024-02-28T13:53:33.162Z,99.90
2024-02-28T14:03:42.708Z,99.90
2024-02-28T14:06:12.159Z,99.90
2024-02-28T14:08:43.190Z,99.90
2024-02-28T14:11:11.052Z,99.90
2024-02-28T14:16:07.904Z,99.90
2024-02-28T14:18:34.825Z,99.90
2024-02-28T14:23:34.028Z,99.90
2024-02-28T14:26:00.799Z,99.90
2024-02-28T14:28:27.516Z,99.90
2024-02-28T14:33:22.481Z,99.90
2024-02-28T14:35:52.794Z,99.90
2024-02-28T14:38:21.802Z,99.90
2024-02-28T14:40:48.650Z,99.90
2024-02-28T14:43:17.629Z,99.90
2024-02-28T14:45:44.429Z,99.90
2024-02-28T14:48:11.443Z,99.90
2024-02-28T14:50:40.680Z,99.90
2024-02-28T14:53:09.805Z,99.90
2024-02-28T14:58:03.779Z,99.90
2024-02-28T15:03:00.079Z,99.90
2024-02-28T15:05:29.281Z,99.90
2024-02-28T15:15:17.980Z,99.90
2024-02-28T15:17:47.124Z,99.90
2024-02-28T15:20:13.869Z,99.90
2024-02-28T15:22:40.783Z,99.90
2024-02-28T15:25:12.733Z,99.90
2024-02-28T15:27:42.171Z,99.90
2024-02-28T15:30:09.612Z,99.90
2024-02-28T15:32:40.744Z,99.90
2024-02-28T15:35:09.233Z,99.90
2024-02-28T15:40:07.110Z,99.90
2024-02-28T15:42:34.901Z,99.90
2024-02-28T15:45:01.785Z,99.90
2024-02-28T15:47:34.285Z,99.90
2024-02-28T15:54:58.226Z,99.90
2024-02-28T15:57:27.572Z,99.90
2024-02-28T15:59:54.331Z,99.90
2024-02-28T16:04:50.842Z,99.90
2024-02-28T16:07:20.119Z,99.90
2024-02-28T16:09:46.923Z,99.90
2024-02-28T16:14:43.298Z,99.90
2024-02-28T16:17:16.523Z,99.90
2024-02-28T16:19:43.812Z,99.90
2024-02-28T16:22:12.894Z,99.90
2024-02-28T16:24:39.759Z,99.90
2024-02-28T16:27:06.760Z,99.90
2024-02-28T16:29:36.230Z,99.90
2024-02-28T16:34:30.338Z,99.90
2024-02-28T16:36:58.720Z,99.90
2024-02-28T16:39:27.997Z,99.90
2024-02-28T16:41:56.860Z,99.90
2024-02-28T16:44:25.762Z,99.90
2024-02-28T16:51:48.640Z,99.90
2024-02-28T16:54:15.465Z,99.90
2024-02-28T16:56:44.661Z,99.90
2024-02-28T16:59:14.286Z,99.90
2024-02-28T17:01:43.829Z,99.90
2024-02-28T17:06:40.565Z,99.90
2024-02-28T17:09:10.167Z,99.90
2024-02-28T17:11:39.206Z,99.90
2024-02-28T17:14:06.014Z,99.90
2024-02-28T17:16:37.949Z,99.90
2024-02-28T17:21:36.605Z,99.90
2024-02-28T17:24:05.594Z,99.90
2024-02-28T17:26:36.699Z,99.90
2024-02-28T17:29:04.429Z,99.90
2024-02-28T17:31:33.324Z,99.90
2024-02-28T17:34:00.076Z,99.90
2024-02-28T17:38:56.523Z,99.90
2024-02-28T17:41:23.311Z,99.90
2024-02-28T17:43:52.651Z,99.90
2024-02-28T17:46:19.554Z,99.90
2024-02-28T17:51:13.498Z,99.90
2024-02-28T17:53:42.438Z,99.90
2024-02-28T17:58:36.700Z,99.90
2024-02-28T18:03:36.023Z,99.90
2024-02-28T18:06:02.933Z,99.90
2024-02-28T18:08:31.226Z,99.90
2024-02-28T18:13:25.183Z,99.90
2024-02-28T18:15:54.361Z,99.90
2024-02-28T18:18:23.383Z,99.90
2024-02-28T18:20:54.813Z,99.90
2024-02-28T18:23:30.346Z,99.90
2024-02-28T18:26:01.223Z,99.90
2024-02-28T18:28:27.952Z,99.90
2024-02-28T18:30:56.936Z,99.90
2024-02-28T18:38:22.501Z,99.90
2024-02-28T18:40:51.364Z,99.90
2024-02-28T18:43:20.730Z,99.90
2024-02-28T18:45:47.608Z,99.90
2024-02-28T18:48:15.336Z,99.90
2024-02-28T18:50:42.718Z,99.90
2024-02-28T18:53:09.491Z,99.90
2024-02-28T18:55:38.444Z,99.90
2024-02-28T19:00:32.914Z,99.90
2024-02-28T19:03:03.249Z,99.90
2024-02-28T19:10:24.355Z,99.90
2024-02-28T19:15:18.385Z,99.90
2024-02-28T19:20:15.004Z,99.90
2024-02-28T19:22:44.297Z,99.90
2024-02-28T19:27:39.067Z,99.90
2024-02-28T19:30:06.495Z,99.90
2024-02-28T19:32:33.258Z,99.90
2024-02-28T19:39:58.384Z,99.90
2024-02-28T19:42:25.139Z,99.90
2024-02-28T19:44:51.904Z,99.90
2024-02-28T19:47:18.674Z,99.90
2024-02-28T19:49:47.621Z,99.90
2024-02-28T19:54:44.094Z,99.90
2024-02-28T19:57:10.824Z,99.90
2024-02-28T19:59:40.101Z,99.90
2024-02-28T20:02:07.043Z,99.90
2024-02-28T20:07:01.135Z,99.90
2024-02-28T20:09:27.872Z,99.90
2024-02-28T20:11:54.959Z,99.90
2024-02-28T20:14:23.889Z,99.90
2024-02-28T20:16:50.565Z,99.90
2024-02-28T20:19:17.364Z,99.90
2024-02-28T20:21:44.295Z,99.90
2024-02-28T20:24:11.124Z,99.90
2024-02-28T20:26:37.867Z,99.90
2024-02-28T20:29:04.655Z,99.90
2024-02-28T20:31:35.799Z,99.90
2024-02-28T20:34:02.541Z,99.90
2024-02-28T20:39:00.333Z,99.90
2024-02-28T20:41:27.496Z,99.90
2024-02-28T20:48:54.188Z,99.90
2024-02-28T20:51:23.349Z,99.90
2024-02-28T20:53:55.597Z,99.90
2024-02-28T20:56:28.354Z,99.90
2024-02-28T20:58:56.457Z,99.90
2024-02-28T21:01:30.351Z,99.90
2024-02-28T21:04:00.325Z,99.90
2024-02-28T21:06:28.173Z,99.90
2024-02-28T21:08:57.892Z,99.90
2024-02-28T21:11:27.496Z,99.90
2024-02-28T21:13:55.344Z,99.90
2024-02-28T21:16:22.860Z,99.90
2024-02-28T21:18:53.071Z,99.90
2024-02-28T21:21:20.297Z,99.90
2024-02-28T21:23:47.171Z,99.90
2024-02-28T21:26:14.765Z,99.90
2024-02-28T21:28:42.103Z,99.90
2024-02-28T21:31:08.997Z,99.90
2024-02-28T21:33:35.896Z,99.90
2024-02-28T21:36:03.411Z,99.90
2024-02-28T21:38:30.722Z,99.90
2024-02-28T21:40:57.461Z,99.90
2024-02-28T21:43:24.278Z,99.90
2024-02-28T21:45:51.114Z,99.90
2024-02-28T21:48:20.118Z,99.90
2024-02-28T21:50:46.792Z,99.90
2024-02-28T21:53:13.750Z,99.90
2024-02-28T21:55:40.521Z,99.90
2024-02-28T22:03:04.316Z,99.40
2024-02-28T22:05:31.400Z,99.90
2024-02-28T22:08:00.730Z,99.90
2024-02-28T22:10:27.477Z,99.90
2024-02-28T22:12:54.330Z,99.90
2024-02-28T22:15:23.823Z,99.60
2024-02-28T22:20:21.442Z,99.90
2024-02-28T22:22:48.208Z,99.90
2024-02-28T22:25:15.046Z,99.90
2024-02-28T22:27:44.117Z,99.90
2024-02-28T22:30:11.163Z,99.90
2024-02-28T22:32:38.065Z,99.90
2024-02-28T22:35:06.265Z,99.90
2024-02-28T22:37:34.263Z,99.70
2024-02-28T22:40:08.059Z,99.80
2024-02-28T22:42:37.342Z,99.80
2024-02-28T22:45:04.374Z,99.90
2024-02-28T22:49:58.396Z,99.90
2024-02-28T22:52:25.124Z,99.80
2024-02-28T22:54:51.920Z,98.70
2024-02-28T22:57:23.264Z,99.90
2024-02-28T22:59:50.552Z,99.90
2024-02-28T23:02:17.330Z,99.90
2024-02-28T23:04:48.752Z,99.50
2024-02-28T23:07:15.611Z,99.90
2024-02-28T23:09:42.538Z,99.40
2024-02-28T23:12:09.540Z,99.90
2024-02-28T23:14:36.231Z,99.90
2024-02-28T23:17:05.592Z,99.90
2024-02-28T23:19:37.445Z,99.90
2024-02-28T23:22:04.340Z,99.60
2024-02-28T23:24:31.082Z,99.90
2024-02-28T23:27:02.384Z,99.50
2024-02-28T23:29:33.691Z,98.50
2024-02-28T23:32:02.736Z,98.70
2024-02-28T23:34:32.004Z,99.00
2024-02-28T23:36:58.902Z,98.00
2024-02-28T23:39:28.153Z,99.00
2024-02-28T23:41:54.856Z,98.80
2024-02-28T23:44:23.777Z,98.20
2024-02-28T23:46:52.753Z,98.60
2024-02-28T23:49:21.881Z,98.60
2024-02-28T23:51:48.631Z,96.70
2024-02-28T23:54:17.969Z,98.10
2024-02-28T23:56:44.741Z,97.60
2024-02-28T23:59:11.488Z,98.80
